Time;durP1;ratioP1;P1;durP2;ratioP2;P2;SDS_P1;SDS_P2;PMS_P1;PMS_P2;Temp;Humidity;BMP_temperature;BMP_pressure;BME280_temperature;BME280_humidity;BME280_pressure;Samples;Min_cycle;Max_cycle;Signal;HPM_P1;HPM_P2
2021/04/15 00:02:20;;;;;;;;;;;;;;;-144.99;92.24;52391.03;4988726;28;19943;-78
2021/04/15 00:04:45;;;;;;;;;;;;;;;-144.99;92.08;52401.22;4985412;28;19926;-77
2021/04/15 00:07:11;;;;;;;;;;;;;;;-144.99;91.99;52393.06;4986203;28;19945;-78
2021/04/15 00:09:37;;;;;;;;;;;;;;;-144.99;91.89;52423.63;4987000;28;19987;-75
2021/04/15 00:12:04;;;;;;;;;;;;;;;-144.99;91.81;52413.44;4986433;28;20057;-77
2021/04/15 00:14:30;;;;;;;;;;;;;;;-144.99;91.67;52386.94;4987420;28;19926;-78
2021/04/15 00:16:56;;;;;;;;;;;;;;;-144.99;91.54;52415.47;4987306;28;19930;-74
2021/04/15 00:19:22;;;;;;;;;;;;;;;-144.99;91.47;52407.31;4986487;28;19926;-75
2021/04/15 00:21:48;;;;;;;;;;;;;;;-144.99;91.32;52413.44;4989588;28;19929;-76
2021/04/15 00:24:13;;;;;;;;;;;;;;;-144.99;91.60;52411.41;4991283;28;19921;-76
2021/04/15 00:26:40;;;;;;;;;;;;;;;-144.99;91.51;52427.72;4991793;28;19997;-76
2021/04/15 00:29:07;;;;;;;;;;;;;;;-144.99;91.59;52444.03;4994445;28;19944;-79
2021/04/15 00:31:33;;;;;;;;;;;;;;;-144.99;91.49;52403.25;4995344;28;20359;-76
2021/04/15 00:33:58;;;;;;;;;;;;;;;-144.99;91.51;52454.22;4991785;28;19925;-75
2021/04/15 00:36:25;;;;;;;;;;;;;;;-144.99;91.77;52427.72;4992656;28;20200;-76
2021/04/15 00:38:52;;;;;;;;;;;;;;;-144.99;91.71;52407.31;4992472;28;19933;-75
2021/04/15 00:41:18;;;;;;;;;;;;;;;-144.99;91.95;52382.88;4992428;28;19921;-78
2021/04/15 00:43:45;;;;;;;;;;;;;;;-144.99;91.90;52415.47;4990510;28;19944;-78
2021/04/15 00:46:23;;;;;;;;;;;;;;;-144.99;91.56;52403.25;5005594;28;19921;-76
2021/04/15 00:48:49;;;;;;;;;;;;;;;-144.99;91.53;52407.31;4985327;28;19930;-78
2021/04/15 00:51:23;;;;;;;;;;;;;;;-144.99;91.47;52366.56;4993836;28;19930;-76
2021/04/15 00:53:52;;;;;;;;;;;;;;;-144.99;91.26;52393.06;4995409;28;19922;-76
2021/04/15 00:56:18;;;;;;;;;;;;;;;-144.99;91.28;52386.94;4996832;28;19925;-78
2021/04/15 00:58:45;;;;;;;;;;;;;;;-144.99;91.21;52407.31;4993807;28;19961;-78
2021/04/15 01:01:11;;;;;;;;;;;;;;;-144.99;91.14;52458.28;4995439;28;19963;-78
2021/04/15 01:03:38;;;;;;;;;;;;;;;-144.99;91.28;52407.31;5002915;28;19922;-78
2021/04/15 01:06:04;;;;;;;;;;;;;;;-144.99;91.35;52411.41;4999982;28;19984;-76
2021/04/15 01:08:30;;;;;;;;;;;;;;;-144.99;91.19;52425.66;4991687;28;19925;-78
2021/04/15 01:11:00;;;;;;;;;;;;;;;-144.99;91.26;52397.13;4993404;28;20049;-75
2021/04/15 01:13:32;;;;;;;;;;;;;;;-144.99;91.17;52391.03;4991042;28;19925;-78
2021/04/15 01:16:02;;;;;;;;;;;;;;;-144.99;91.23;52384.91;4995395;28;19933;-77
2021/04/15 01:18:31;;;;;;;;;;;;;;;-144.99;90.96;52448.09;4991640;28;19979;-78
2021/04/15 01:21:07;;;;;;;;;;;;;;;-144.99;91.09;52395.09;4990455;28;19928;-76
2021/04/15 01:23:36;;;;;;;;;;;;;;;-144.99;91.07;52472.56;4992209;28;19922;-77
2021/04/15 01:26:13;;;;;;;;;;;;;;;-144.99;91.05;52407.31;4990423;28;20012;-77
2021/04/15 01:28:57;;;;;;;;;;;;;;;-144.99;91.19;52427.72;4987816;28;20341;-76
2021/04/15 01:31:26;;;;;;;;;;;;;;;-144.99;91.25;52403.25;4986524;28;19925;-77
2021/04/15 01:33:54;;;;;;;;;;;;;;;-144.99;91.26;52423.63;4989578;28;19930;-77
2021/04/15 01:36:26;;;;;;;;;;;;;;;-144.99;91.14;52427.72;4990145;28;19922;-77
2021/04/15 01:38:55;;;;;;;;;;;;;;;-144.99;90.91;52393.06;4990378;28;19922;-76
2021/04/15 01:41:24;;;;;;;;;;;;;;;-144.99;90.75;52403.25;4988626;28;19968;-76
2021/04/15 01:43:54;;;;;;;;;;;;;;;-144.99;90.84;52391.03;4988598;28;19922;-74
2021/04/15 01:46:23;;;;;;;;;;;;;;;-144.99;90.83;52399.19;4987512;28;19925;-75
2021/04/15 01:48:50;;;;;;;;;;;;;;;-144.99;90.92;52395.09;4988543;28;19928;-77
2021/04/15 01:51:18;;;;;;;;;;;;;;;-144.99;90.92;52409.38;4988834;28;19929;-75
2021/04/15 01:53:47;;;;;;;;;;;;;;;-144.99;91.11;52395.09;4989252;28;19929;-77
2021/04/15 01:56:16;;;;;;;;;;;;;;;-144.99;91.16;52444.03;4989413;28;19921;-77
2021/04/15 01:58:44;;;;;;;;;;;;;;;-144.99;91.28;52378.78;4987777;28;20489;-76
2021/04/15 02:01:12;;;;;;;;;;;;;;;-144.99;91.00;52395.09;4986781;28;19975;-77
2021/04/15 02:03:38;;;;;;;;;;;;;;;-144.99;90.91;52397.13;4988295;28;20383;-78
2021/04/15 02:06:06;;;;;;;;;;;;;;;-144.99;90.92;52417.53;4989381;28;20450;-77
2021/04/15 02:08:34;;;;;;;;;;;;;;;-144.99;91.02;52391.03;4991011;28;19930;-76
2021/04/15 02:11:02;;;;;;;;;;;;;;;-144.99;91.13;52415.47;4989784;28;19932;-76
2021/04/15 02:13:30;;;;;;;;;;;;;;;-144.99;90.88;52399.19;4990066;28;19929;-76
2021/04/15 02:15:58;;;;;;;;;;;;;;;-144.99;90.93;52417.53;4991981;28;19922;-76
2021/04/15 02:18:28;;;;;;;;;;;;;;;-144.99;90.58;52415.47;4990514;28;19921;-76
2021/04/15 02:20:58;;;;;;;;;;;;;;;-144.99;90.51;52395.09;4989426;28;19921;-77
2021/04/15 02:23:26;;;;;;;;;;;;;;;-144.99;90.47;52382.88;4993478;28;19976;-76
2021/04/15 02:25:56;;;;;;;;;;;;;;;-144.99;90.29;52423.63;4996934;28;19921;-78
2021/04/15 02:28:25;;;;;;;;;;;;;;;-144.99;90.04;52423.63;4993705;28;19941;-78
2021/04/15 02:30:57;;;;;;;;;;;;;;;-144.99;89.92;52439.94;4993542;28;19921;-79
2021/04/15 02:33:25;;;;;;;;;;;;;;;-144.99;89.87;52415.47;4995388;28;19922;-78
2021/04/15 02:35:53;;;;;;;;;;;;;;;-144.99;89.88;52431.78;4995076;28;19949;-78
2021/04/15 02:38:23;;;;;;;;;;;;;;;-144.99;90.54;52362.50;4993217;28;20307;-80
2021/04/15 02:40:51;;;;;;;;;;;;;;;-144.99;90.62;52407.31;4992335;28;19922;-79
2021/04/15 02:43:20;;;;;;;;;;;;;;;-144.99;90.80;52391.03;4993580;28;19930;-76
2021/04/15 02:45:49;;;;;;;;;;;;;;;-144.99;90.93;52395.09;4997246;28;20451;-79
2021/04/15 02:48:19;;;;;;;;;;;;;;;-144.99;91.04;52425.66;4987107;28;20462;-77
2021/04/15 02:50:44;;;;;;;;;;;;;;;-144.99;91.05;52415.47;4991898;28;19928;-79
2021/04/15 02:53:13;;;;;;;;;;;;;;;-144.99;91.67;52427.72;5002194;28;20028;-79
2021/04/15 02:55:44;;;;;;;;;;;;;;;-144.99;91.52;52431.78;4993892;28;19922;-78
2021/04/15 02:58:15;;;;;;;;;;;;;;;-144.99;91.84;52419.56;4994785;28;19922;-79
2021/04/15 03:00:41;;;;;;;;;;;;;;;-144.99;91.77;52423.63;4992794;28;19921;-78
2021/04/15 03:03:10;;;;;;;;;;;;;;;-144.99;92.00;52427.72;5000178;28;19992;-77
2021/04/15 03:05:39;;;;;;;;;;;;;;;-144.99;91.81;52435.88;5003500;28;19958;-78
2021/04/15 03:08:06;;;;;;;;;;;;;;;-144.99;91.96;52423.63;4994814;28;19929;-79
2021/04/15 03:10:35;;;;;;;;;;;;;;;-144.99;92.10;52425.66;4993808;28;20015;-77
2021/04/15 03:13:04;;;;;;;;;;;;;;;-144.99;92.10;52397.13;4994923;28;20348;-78
2021/04/15 03:15:33;;;;;;;;;;;;;;;-144.99;92.38;52448.09;4996802;28;20434;-77
2021/04/15 03:18:00;;;;;;;;;;;;;;;-144.99;92.56;52431.78;4992237;28;19926;-78
2021/04/15 03:20:27;;;;;;;;;;;;;;;-144.99;92.70;52413.44;4988528;28;19948;-76
2021/04/15 03:22:56;;;;;;;;;;;;;;;-144.99;92.66;52431.78;4995055;28;19921;-75
2021/04/15 03:25:22;;;;;;;;;;;;;;;-144.99;92.75;52439.94;5004773;28;20328;-78
2021/04/15 03:27:51;;;;;;;;;;;;;;;-144.99;92.80;52427.72;4992360;28;19921;-79
2021/04/15 03:30:20;;;;;;;;;;;;;;;-144.99;93.00;52431.78;4988254;28;19923;-78
2021/04/15 03:32:48;;;;;;;;;;;;;;;-144.99;93.13;52427.72;4994926;28;20395;-77
2021/04/15 03:35:15;;;;;;;;;;;;;;;-144.99;93.22;52409.38;4998407;28;19922;-78
2021/04/15 03:37:44;;;;;;;;;;;;;;;-144.99;93.15;52431.78;4997994;28;19928;-80
2021/04/15 03:40:13;;;;;;;;;;;;;;;-144.99;93.09;52464.41;4992248;28;20389;-79
2021/04/15 03:42:41;;;;;;;;;;;;;;;-144.99;93.09;52403.25;4991230;28;19921;-78
2021/04/15 03:45:13;;;;;;;;;;;;;;;-144.99;93.24;52448.09;4993013;28;19930;-79
2021/04/15 03:47:42;;;;;;;;;;;;;;;-144.99;93.25;52464.41;4997572;28;19922;-78
2021/04/15 03:50:10;;;;;;;;;;;;;;;-144.99;93.50;52403.25;4992268;28;19930;-77
2021/04/15 03:52:38;;;;;;;;;;;;;;;-144.99;93.50;52423.63;4989080;28;19926;-79
2021/04/15 03:55:11;;;;;;;;;;;;;;;-144.99;93.59;52433.81;4998674;28;20043;-76
2021/04/15 03:57:39;;;;;;;;;;;;;;;-144.99;93.62;52427.72;4991815;28;20340;-76
2021/04/15 04:00:09;;;;;;;;;;;;;;;-144.99;93.78;52431.78;4990994;28;19921;-76
2021/04/15 04:02:39;;;;;;;;;;;;;;;-144.99;93.96;52423.63;4990508;28;19925;-76
2021/04/15 04:05:06;;;;;;;;;;;;;;;-144.99;93.92;52431.78;4994052;28;20319;-77
2021/04/15 04:07:35;;;;;;;;;;;;;;;-144.99;93.92;52423.63;4998672;28;19932;-75
2021/04/15 04:10:02;;;;;;;;;;;;;;;-144.99;93.85;52409.38;4990888;28;20380;-76
2021/04/15 04:12:32;;;;;;;;;;;;;;;-144.99;93.84;52403.25;4986713;28;19935;-76
2021/04/15 04:15:00;;;;;;;;;;;;;;;-144.99;93.76;52425.66;4988387;28;20077;-76
2021/04/15 04:17:31;;;;;;;;;;;;;;;-144.99;93.90;52439.94;4989910;28;19922;-76
2021/04/15 04:19:57;;;;;;;;;;;;;;;-144.99;93.75;52427.72;4989690;28;19922;-78
2021/04/15 04:22:26;;;;;;;;;;;;;;;-144.99;93.78;52382.88;4996482;28;20162;-76
2021/04/15 04:24:54;;;;;;;;;;;;;;;-144.99;93.66;52427.72;5040214;22;19929;-78
2021/04/15 04:27:23;;;;;;;;;;;;;;;-144.99;93.69;52413.44;4977278;28;20289;-77
2021/04/15 04:29:51;;;;;;;;;;;;;;;-144.99;93.64;52452.16;4975206;28;19928;-78
2021/04/15 04:32:19;;;;;;;;;;;;;;;-144.99;93.68;52415.47;4984315;28;19922;-76
2021/04/15 04:34:49;;;;;;;;;;;;;;;-144.99;93.64;52460.31;4970447;28;19933;-74
2021/04/15 04:37:16;;;;;;;;;;;;;;;-144.99;93.68;52419.56;4968049;28;19922;-75
2021/04/15 04:39:42;;;;;;;;;;;;;;;-144.99;93.80;52386.94;4968433;28;20496;-71
2021/04/15 04:42:16;;;;;;;;;;;;;;;-144.99;93.89;52423.63;4968909;28;19984;-74
2021/04/15 04:44:43;;;;;;;;;;;;;;;-144.99;94.10;52395.09;4966024;28;20121;-73
2021/04/15 04:47:12;;;;;;;;;;;;;;;-144.99;94.24;52444.03;4969061;28;19930;-74
2021/04/15 04:49:39;;;;;;;;;;;;;;;-144.99;93.93;52384.91;4968962;28;20377;-74
2021/04/15 04:52:09;;;;;;;;;;;;;;;-144.99;93.92;52417.53;4971151;28;19925;-73
2021/04/15 04:54:37;;;;;;;;;;;;;;;-144.99;93.79;52419.56;4968947;28;19952;-73
2021/04/15 04:57:07;;;;;;;;;;;;;;;-144.99;93.84;52403.25;4969673;28;19968;-71
2021/04/15 04:59:34;;;;;;;;;;;;;;;-144.99;94.15;52433.81;4968729;28;19929;-73
2021/04/15 05:02:00;;;;;;;;;;;;;;;-144.99;94.34;52399.19;4968354;28;19952;-73
2021/04/15 05:04:28;;;;;;;;;;;;;;;-144.99;94.28;52382.88;4966758;28;19925;-72
2021/04/15 05:07:00;;;;;;;;;;;;;;;-144.99;94.19;52403.25;4969352;28;20556;-73
2021/04/15 05:09:29;;;;;;;;;;;;;;;-144.99;94.15;52419.56;4972094;28;19930;-72
2021/04/15 05:11:55;;;;;;;;;;;;;;;-144.99;94.10;52395.09;4971790;28;20313;-71
2021/04/15 05:14:23;;;;;;;;;;;;;;;-144.99;94.06;52372.69;4971070;28;19969;-73
2021/04/15 05:16:50;;;;;;;;;;;;;;;-144.99;93.98;52395.09;4970236;28;20400;-71
2021/04/15 05:19:16;;;;;;;;;;;;;;;-144.99;93.97;52378.78;4970602;28;19926;-71
2021/04/15 05:21:44;;;;;;;;;;;;;;;-144.99;93.98;52407.31;4971097;28;19926;-71
2021/04/15 05:24:13;;;;;;;;;;;;;;;-144.99;93.99;52374.72;4972156;28;20253;-70
2021/04/15 05:26:42;;;;;;;84.32;52.22;;;;;;;-144.99;94.00;52407.31;4967530;28;24516;-73
2021/04/15 05:29:12;;;;;;;;;;;;;;;-144.99;93.93;52378.78;4973378;28;20227;-72
2021/04/15 05:31:40;;;;;;;;;;;;;;;-144.99;93.91;52403.25;4972121;28;19970;-73
2021/04/15 05:34:15;;;;;;;;;;;;;;;-144.99;93.94;52382.88;4971623;28;19996;-73
2021/04/15 05:36:41;;;;;;;;;;;;;;;-144.99;93.77;52431.78;4968638;28;19983;-74
2021/04/15 05:39:09;;;;;;;;;;;;;;;-144.99;93.57;52362.50;4972012;28;19958;-74
2021/04/15 05:41:37;;;;;;;;;;;;;;;-144.99;93.54;52407.31;4970291;28;19980;-72
2021/04/15 05:44:04;;;;;;;;;;;;;;;-144.99;93.21;52374.72;4971292;28;20344;-73
2021/04/15 05:46:38;;;;;;;;;;;;;;;-144.99;93.14;52395.09;4970109;28;19982;-74
2021/04/15 05:49:04;;;;;;;;;;;;;;;-144.99;92.98;52382.88;4970187;28;19958;-72
2021/04/15 05:51:33;;;;;;;;;;;;;;;-144.99;92.87;52388.97;4970838;28;19962;-70
2021/04/15 05:54:03;;;;;;;;;;;;;;;-144.99;92.76;52409.38;4969829;28;19969;-72
2021/04/15 05:56:33;;;;;;;;;;;;;;;-144.99;92.65;52386.94;4968816;28;20000;-71
2021/04/15 05:59:02;;;;;;;;;;;;;;;-144.99;92.75;52409.38;4968986;28;19998;-71
2021/04/15 06:01:33;;;;;;;;;;;;;;;-144.99;92.86;52374.72;4970521;28;20016;-72
2021/04/15 06:04:06;;;;;;;;;;;;;;;-144.99;92.87;52399.19;4969632;28;19922;-71
2021/04/15 06:06:34;;;;;;;;;;;;;;;-144.99;92.72;52374.72;4969171;28;20502;-73
2021/04/15 06:09:00;;;;;;;;;;;;;;;-144.99;92.56;52425.66;4970886;28;20057;-72
2021/04/15 06:11:35;;;;;;;;;;;;;;;-144.99;92.40;52403.25;4969880;28;19929;-72
2021/04/15 06:14:04;;;;;;;;;;;;;;;-144.99;92.32;52391.03;4970624;28;19972;-71
2021/04/15 06:16:33;;;;;;;;;;;;;;;-144.99;92.27;52388.97;4971968;28;20158;-73
2021/04/15 06:19:01;;;;;;;;;;;;;;;-144.99;92.19;52399.19;4967993;28;19922;-72
2021/04/15 06:21:30;;;;;;;;;;;;;;;-144.99;92.06;52391.03;4969618;28;19956;-69
2021/04/15 06:23:58;;;;;;;;;;;;;;;-144.99;92.01;52386.94;4971601;28;19921;-73
2021/04/15 06:26:27;;;;;;;;;;;;;;;-144.99;91.81;52378.78;4969411;28;19973;-71
2021/04/15 06:28:55;;;;;;;;;;;;;;;-144.99;91.64;52346.19;4968464;28;19938;-71
2021/04/15 06:31:23;;;;;;;;;;;;;;;-144.99;91.32;52356.38;4969635;28;20442;-73
2021/04/15 06:33:51;;;;;;;;;;;;;;;-144.99;91.06;52354.34;4970535;28;19922;-72
2021/04/15 06:36:22;;;;;;;;;;;;;;;-144.99;90.87;52380.84;4969090;28;19959;-72
2021/04/15 06:38:54;;;;;;;;;;;;;;;-144.99;90.47;52346.19;4969325;28;20417;-76
2021/04/15 06:41:44;;;;;;;;;;;;;;;-144.99;90.09;52386.94;4971291;28;19936;-75
2021/04/15 06:44:26;;;;;;;;;;;;;;;-144.99;89.38;52391.03;4954279;28;19922;-74
2021/04/15 06:47:16;;;;;;;;;;;;;;;-144.99;88.86;52382.88;4969068;28;19922;-73
2021/04/15 06:49:48;;;;;;;;;;;;;;;-144.99;87.94;52362.50;4966103;28;19961;-73
2021/04/15 06:52:18;;;;;;;;;;;;;;;-144.99;87.49;52372.69;4973537;28;19995;-75
2021/04/15 06:54:52;;;;;;;;;;;;;;;-144.99;86.78;52305.41;4967645;28;19945;-72
2021/04/15 06:57:23;;;;;;;;;;;;;;;-144.99;86.51;52378.78;4968772;28;20457;-74
2021/04/15 06:59:56;;;;;;;;;;;;;;;-144.99;86.25;52342.09;4969065;28;19922;-73
2021/04/15 07:02:37;;;;;;;;;;;;;;;-144.99;85.49;52395.09;4968335;28;19922;-75
2021/04/15 07:05:07;;;;;;;;;;;;;;;-144.99;85.47;52354.34;4968512;28;19930;-77
2021/04/15 07:07:35;;;;;;;;;;;;;;;-144.99;85.46;52329.88;4969642;28;20384;-73
2021/04/15 07:10:18;;;;;;;;;;;;;;;-144.99;84.94;52382.88;4970275;28;19970;-74
2021/04/15 07:13:01;;;;;;;;;;;;;;;-144.99;84.04;52336.00;4973013;28;19950;-79
2021/04/15 07:15:45;;;;;;;;;;;;;;;-144.99;83.57;52358.41;4972212;28;19980;-73
2021/04/15 07:18:37;;;;;;;;;;;;;;;-144.99;82.42;52342.09;4953033;28;19922;-75
2021/04/15 07:21:25;;;;;;;;;;;;;;;-144.99;81.40;52325.81;4972936;28;19932;-76
2021/04/15 07:24:09;;;;;;;;;;;;;;;-144.99;80.43;52354.34;4974776;28;19930;-75
2021/04/15 07:26:47;;;;;;;;;;;;;;;-144.99;78.20;52317.66;4971901;28;20607;-74
2021/04/15 07:29:23;;;;;;;;;;;;;;;-144.99;76.17;52327.84;4972814;28;19926;-73
2021/04/15 07:32:01;;;;;;;;;;;;;;;-144.99;75.88;52342.09;4972116;28;19929;-73
2021/04/15 07:34:39;;;;;;;;;;;;;;;-144.99;74.98;52336.00;4977330;28;19961;-75
2021/04/15 07:37:15;;;;;;;;;;;;;;;-144.99;74.78;52313.56;4969279;28;19922;-76
2021/04/15 07:39:49;;;;;;;;;;;;;;;-144.99;74.16;52285.03;4972798;28;19929;-74
2021/04/15 07:42:25;;;;;;;;;;;;;;;-144.99;73.58;52309.50;4970215;28;19922;-74
2021/04/15 07:44:54;;;;;;;;;;;;;;;-144.99;72.76;52309.50;4972055;28;19941;-73
2021/04/15 07:47:41;;;;;;;;;;;;;;;-144.99;71.37;52301.34;4974073;28;20363;-74
2021/04/15 07:50:26;;;;;;;;;;;;;;;-144.99;70.63;52342.09;4965174;28;19952;-72
2021/04/15 07:53:06;;;;;;;;;;;;;;;-144.99;69.79;52280.97;4971935;28;19928;-74
2021/04/15 07:55:40;;;;;;;;;;;;;;;-144.99;68.68;52301.34;4972422;28;19922;-75
2021/04/15 07:58:15;;;;;;;;;;;;;;;-144.99;68.35;52321.72;4970986;28;19922;-75
2021/04/15 08:00:58;;;;;;;;;;;;;;;-144.99;67.20;52313.56;4972123;28;19928;-76
2021/04/15 08:03:54;;;;;;;;;;;;;;;-144.99;66.52;52285.03;4974020;28;19926;-73
2021/04/15 08:06:36;;;;;;;;;;;;;;;-144.99;65.54;52297.25;4975248;28;19922;-76
2021/04/15 08:09:16;;;;;;;;;;;;;;;-144.99;64.87;52309.50;4978853;28;19990;-73
2021/04/15 08:11:46;;;;;;;;;;;;;;;-144.99;63.81;52301.34;4976603;28;19926;-75
2021/04/15 08:14:19;;;;;;;;;;;;;;;-144.99;62.78;52248.34;4980584;28;20037;-72
2021/04/15 08:17:04;;;;;;;;;;;;;;;-144.99;61.49;52317.66;4981262;28;19926;-75
2021/04/15 08:19:40;;;;;;;;;;;;;;;-144.99;58.72;52297.25;4979366;28;20009;-77
2021/04/15 08:22:09;;;;;;;;;;;;;;;-144.99;57.04;52311.53;4980265;28;19929;-76
2021/04/15 08:24:41;;;;;;;;;;;;;;;-144.99;56.56;52301.34;4986922;28;19957;-74
2021/04/15 08:27:16;;;;;;;;;;;;;;;-144.99;56.24;52236.13;4993529;28;19937;-77
2021/04/15 08:29:59;;;;;;;141.40;67.13;;;;;;;-144.99;56.10;52283.00;4983708;28;24536;-76
2021/04/15 08:32:31;;;;;;;117.37;61.37;;;;;;;-144.99;55.77;52268.72;4980146;28;20289;-77
2021/04/15 08:35:10;;;;;;;142.40;67.57;;;;;;;-144.99;55.51;52264.66;4974333;28;20354;-73
2021/04/15 08:38:01;;;;;;;112.47;59.83;;;;;;;-144.99;55.67;52234.09;4979754;28;20684;-74
2021/04/15 08:40:40;;;;;;;137.37;66.37;;;;;;;-144.99;54.67;52293.19;4978966;28;21199;-75
2021/04/15 08:43:18;;;;;;;141.97;67.40;;;;;;;-144.99;54.12;52232.03;4989157;28;20627;-76
2021/04/15 08:45:51;;;;;;;110.47;59.47;;;;;;;-144.99;53.48;52268.72;4985329;28;20658;-74
2021/04/15 08:48:24;;;;;;;;;;;;;;;-144.99;51.94;52268.72;4981081;28;20611;-76
2021/04/15 08:50:58;;;;;;;;;;;;;;;-144.99;50.81;52248.34;4982299;28;19926;-76
2021/04/15 08:53:42;;;;;;;;;;;;;;;-144.99;49.64;52283.00;4985018;28;19988;-76
2021/04/15 08:56:09;;;;;;;;;;;;;;;-144.99;48.44;52285.03;4976744;28;19985;-77
2021/04/15 08:58:51;;;;;;;;;;;;;;;-144.99;47.17;52270.78;4979451;28;19973;-75
2021/04/15 09:01:22;;;;;;;;;;;;;;;-144.99;45.61;52252.44;4983603;28;20020;-74
2021/04/15 09:03:55;;;;;;;97.40;56.83;;;;;;;-144.99;43.84;52276.88;4973462;28;24600;-76
2021/04/15 09:06:26;;;;;;;122.07;62.17;;;;;;;-144.99;43.92;52236.13;4973236;28;20237;-75
2021/04/15 09:09:03;;;;;;;91.90;54.92;;;;;;;-144.99;43.75;52256.50;4979450;28;20634;-75
2021/04/15 09:11:33;;;;;;;;;;;;;;;-144.99;44.04;52240.19;4977657;28;20218;-75
2021/04/15 09:14:05;;;;;;;113.32;60.35;;;;;;;-144.99;43.36;52272.81;4973868;28;24932;-74
2021/04/15 09:16:37;;;;;;;115.50;61.33;;;;;;;-144.99;43.53;52285.03;4991185;28;20226;-75
2021/04/15 09:19:11;;;;;;;93.78;55.30;;;;;;;-144.99;43.37;52315.59;4981685;28;20218;-76
2021/04/15 09:21:55;;;;;;;98.40;56.65;;;;;;;-144.99;43.95;52264.66;4972912;28;20677;-74
2021/04/15 09:24:42;;;;;;;94.55;55.47;;;;;;;-144.99;43.15;52254.47;4976069;28;20216;-74
2021/04/15 09:27:20;;;;;;;;;;;;;;;-144.99;42.62;52242.22;4974728;28;20217;-75
2021/04/15 09:30:00;;;;;;;109.40;60.28;;;;;;;-144.99;41.50;52236.13;4972838;28;24867;-76
2021/04/15 09:32:33;;;;;;;;;;;;;;;-144.99;40.36;52270.78;4975017;28;20299;-74
2021/04/15 09:35:31;;;;;;;101.63;58.60;;;;;;;-144.99;39.94;52264.66;4976624;28;24574;-77
2021/04/15 09:38:23;;;;;;;82.80;51.70;;;;;;;-144.99;39.41;52256.50;4973469;28;21233;-77
2021/04/15 09:41:23;;;;;;;119.10;62.57;;;;;;;-144.99;38.57;52268.72;4986124;28;20219;-76
2021/04/15 09:44:03;;;;;;;90.25;54.40;;;;;;;-144.99;38.58;52223.88;4967419;28;21190;-74
2021/04/15 09:46:33;;;;;;;93.65;55.80;;;;;;;-144.99;39.00;52268.72;4976942;28;20284;-75
2021/04/15 09:49:06;;;;;;;;;;;;;;;-144.99;39.52;52232.03;4974839;28;20213;-77
2021/04/15 09:51:56;;;;;;;107.70;60.75;;;;;;;-144.99;39.44;52223.88;4971273;28;24579;-73
2021/04/15 09:54:26;;;;;;;;;;;;;;;-144.99;38.26;52223.88;4973404;28;20340;-76
2021/04/15 09:56:58;;;;;;;;;;;;;;;-144.99;37.36;52236.13;4983028;28;20012;-75
2021/04/15 09:59:27;;;;;;;;;;;;;;;-144.99;37.36;52195.34;4976060;28;19926;-75
2021/04/15 10:02:00;;;;;;;100.53;58.60;;;;;;;-144.99;37.82;52203.50;4972491;28;24656;-75
2021/04/15 10:04:38;;;;;;;88.57;54.00;;;;;;;-144.99;35.85;52215.75;4975345;28;20209;-75
2021/04/15 10:07:08;;;;;;;89.17;54.10;;;;;;;-144.99;35.79;52181.09;4978488;28;21733;-76
2021/04/15 10:09:43;;;;;;;93.47;55.60;;;;;;;-144.99;35.57;52195.34;4987899;28;20212;-76
2021/04/15 10:12:22;;;;;;;90.43;54.63;;;;;;;-144.99;35.62;52250.38;4975933;28;20240;-76
2021/04/15 10:15:33;;;;;;;91.85;56.20;;;;;;;-144.99;34.81;52223.88;4981941;28;20224;-76
2021/04/15 10:18:12;;;;;;;96.03;56.27;;;;;;;-144.99;35.92;52264.66;4967701;28;20230;-75
2021/04/15 10:21:08;;;;;;;110.90;61.67;;;;;;;-144.99;36.55;52256.50;4974087;28;20535;-75
2021/04/15 10:23:54;;;;;;;;;;;;;;;-144.99;37.34;52276.88;4975807;28;20205;-76
2021/04/15 10:26:44;;;;;;;98.40;58.15;;;;;;;-144.99;38.13;52268.72;4978018;28;24798;-76
2021/04/15 10:29:26;;;;;;;;;;;;;;;-144.99;38.88;52305.41;4975239;28;20713;-76
2021/04/15 10:32:09;;;;;;;;;;;;;;;-144.99;38.58;52240.19;5022079;22;19928;-82
2021/04/15 10:34:42;;;;;;;;;;;;;;;-144.99;39.08;52248.34;4990585;28;19932;-78
2021/04/15 10:37:22;;;;;;;;;;;;;;;-144.99;39.11;52317.66;4996359;28;19925;-78
2021/04/15 10:40:12;;;;;;;;;;;;;;;-144.99;38.62;52289.13;4990071;28;19969;-78
2021/04/15 10:42:57;;;;;;;;;;;;;;;-144.99;39.25;52285.03;4995713;28;20384;-77
2021/04/15 10:45:44;;;;;;;;;;;;;;;-144.99;38.83;52291.16;4994187;28;19969;-78
2021/04/15 10:48:18;;;;;;;;;;;;;;;-144.99;38.88;52352.28;4995703;28;19951;-78
2021/04/15 10:50:51;;;;;;;;;;;;;;;-144.99;38.90;52333.94;4996832;28;19921;-78
2021/04/15 10:53:35;;;;;;;;;;;;;;;-144.99;39.30;52297.25;4991208;28;19992;-76
2021/04/15 10:56:07;;;;;;;112.68;61.65;;;;;;;-144.99;38.28;52342.09;4990570;28;24502;-78
2021/04/15 10:58:35;;;;;;;;;;;;;;;-144.99;38.47;52329.88;4986971;28;20218;-80
2021/04/15 11:01:15;;;;;;;;;;;;;;;-144.99;38.53;52150.53;4981149;28;19937;-76
2021/04/15 11:03:41;;;;;;;;;;;;;;;-144.99;38.64;52313.56;4976252;28;19926;-75
2021/04/15 11:06:11;;;;;;;91.93;55.78;;;;;;;-144.99;38.51;52333.94;4991460;28;19972;-75
2021/04/15 11:08:38;;;;;;;;;;;;;;;-144.99;38.75;52352.28;4990075;28;20577;-79
2021/04/15 11:11:13;;;;;;;79.18;52.47;;;;;;;-144.99;38.79;52358.41;4996914;28;24478;-76
2021/04/15 11:13:39;;;;;;;;;;;;;;;-144.99;39.05;52325.81;4994612;28;20251;-78
2021/04/15 11:16:11;;;;;;;;;;;;;;;-144.99;38.80;52331.91;4994610;28;19922;-77
2021/04/15 11:18:37;;;;;;;;;;;;;;;-144.99;38.71;52344.16;4992686;28;19922;-79
2021/04/15 11:21:14;;;;;;;;;;;;;;;-144.99;39.55;52362.50;4988906;28;19922;-74
2021/04/15 11:23:41;;;;;;;;;;;;;;;-144.99;39.62;52342.09;4994604;28;19929;-77
2021/04/15 11:26:25;;;;;;;;;;;;;;;-144.99;39.40;52354.34;4995720;28;20355;-76
2021/04/15 11:28:52;;;;;;;;;;;;;;;-144.99;39.77;52352.28;4995606;28;19926;-76
2021/04/15 11:31:35;;;;;;;;;;;;;;;-144.99;40.11;52382.88;4995179;28;19921;-76
2021/04/15 11:34:05;;;;;;;;;;;;;;;-144.99;40.52;52354.34;4986878;28;19933;-78
2021/04/15 11:36:32;;;;;;;;;;;;;;;-144.99;40.92;52338.03;4997554;28;19934;-76
2021/04/15 11:39:08;;;;;;;;;;;;;;;-144.99;41.07;52366.56;4989939;28;20548;-77
2021/04/15 11:41:37;;;;;;;;;;;;;;;-144.99;41.20;52378.78;4982977;28;19921;-77
2021/04/15 11:44:04;;;;;;;;;;;;;;;-144.99;40.54;52338.03;4992241;28;20449;-77
2021/04/15 11:46:38;;;;;;;87.45;53.20;;;;;;;-144.99;41.07;52340.06;4986749;28;24496;-76
2021/04/15 11:49:06;;;;;;;;;;;;;;;-144.99;41.33;52338.03;4988210;28;20206;-74
2021/04/15 11:51:35;;;;;;;;;;;;;;;-144.99;40.92;52333.94;4987778;28;19936;-80
2021/04/15 11:54:01;;;;;;;;;;;;;;;-144.99;41.28;52346.19;4986141;28;19933;-76
2021/04/15 11:56:32;;;;;;;;;;;;;;;-144.99;41.78;52409.38;4994374;28;19930;-75
2021/04/15 11:59:15;;;;;;;;;;;;;;;-144.99;41.42;52368.59;4300881;28;10000691;-76
2021/04/15 12:01:42;;;;;;;;;;;;;;;-144.99;41.51;52344.16;4985286;28;20237;-75
2021/04/15 12:04:15;;;;;;;110.55;58.58;;;;;;;-144.99;41.27;52370.63;4986089;28;24487;-77
2021/04/15 12:06:44;;;;;;;;;;;;;;;-144.99;41.34;52419.56;4984001;28;20275;-76
2021/04/15 12:09:13;;;;;;;;;;;;;;;-144.99;40.67;52321.72;4979056;28;19930;-77
2021/04/15 12:11:45;;;;;;;;;;;;;;;-144.99;39.97;52325.81;4992327;28;19922;-74
2021/04/15 12:14:12;;;;;;;;;;;;;;;-144.99;40.23;52305.41;4983176;28;19926;-75
2021/04/15 12:16:46;;;;;;;;;;;;;;;-144.99;39.37;52305.41;4990705;28;20017;-77
2021/04/15 12:19:16;;;;;;;;;;;;;;;-144.99;39.00;52268.72;4992665;28;19925;-76
2021/04/15 12:21:46;;;;;;;;;;;;;;;-144.99;38.14;52301.34;4987274;28;19925;-74
2021/04/15 12:24:17;;;;;;;;;;;;;;;-144.99;38.00;52305.41;4984612;28;19928;-75
2021/04/15 12:26:46;;;;;;;;;;;;;;;-144.99;37.73;52325.81;4989086;28;19922;-81
2021/04/15 12:29:19;;;;;;;95.13;56.15;;;;;;;-144.99;38.20;52356.38;4988834;28;24506;-77
2021/04/15 12:31:48;;;;;;;107.45;59.42;;;;;;;-144.99;38.11;52362.50;4987324;28;20219;-75
2021/04/15 12:34:46;;;;;;;108.87;59.23;;;;;;;-144.99;38.22;52350.25;4984661;28;20246;-76
2021/04/15 12:37:17;;;;;;;;;;;;;;;-144.99;38.86;52333.94;4965780;28;20248;-75
2021/04/15 12:39:50;;;;;;;116.60;60.53;;;;;;;-144.99;38.97;52307.47;4991798;28;24510;-79